sensor_id;sensor_type;location;lat;lon;timestamp;P1;durP1;ratioP1;P2;durP2;ratioP2
3563;SDS011;1796;52.388;13.096;2023-10-31T00:00:38;10.90;;;3.10;;
3563;SDS011;1796;52.388;13.096;2023-10-31T00:03:05;4.80;;;3.90;;
3563;SDS011;1796;52.388;13.096;2023-10-31T00:05:31;5.07;;;3.77;;
3563;SDS011;1796;52.388;13.096;2023-10-31T00:07:59;5.60;;;4.27;;
3563;SDS011;1796;52.388;13.096;2023-10-31T00:10:26;5.23;;;3.77;;
3563;SDS011;1796;52.388;13.096;2023-10-31T00:12:53;5.93;;;4.07;;
3563;SDS011;1796;52.388;13.096;2023-10-31T00:15:20;19.37;;;4.60;;
3563;SDS011;1796;52.388;13.096;2023-10-31T00:17:47;7.83;;;4.13;;
3563;SDS011;1796;52.388;13.096;2023-10-31T00:20:14;4.40;;;4.00;;
3563;SDS011;1796;52.388;13.096;2023-10-31T00:22:40;6.93;;;3.80;;
3563;SDS011;1796;52.388;13.096;2023-10-31T00:25:09;9.97;;;4.47;;
3563;SDS011;1796;52.388;13.096;2023-10-31T00:27:35;6.80;;;4.37;;
3563;SDS011;1796;52.388;13.096;2023-10-31T00:30:03;9.80;;;4.40;;
3563;SDS011;1796;52.388;13.096;2023-10-31T00:32:31;18.13;;;4.30;;
3563;SDS011;1796;52.388;13.096;2023-10-31T00:34:58;9.00;;;4.00;;
3563;SDS011;1796;52.388;13.096;2023-10-31T00:37:24;7.00;;;3.90;;
3563;SDS011;1796;52.388;13.096;2023-10-31T00:39:51;4.70;;;4.20;;
3563;SDS011;1796;52.388;13.096;2023-10-31T00:42:19;6.10;;;4.00;;
3563;SDS011;1796;52.388;13.096;2023-10-31T00:44:46;6.80;;;4.00;;
3563;SDS011;1796;52.388;13.096;2023-10-31T00:47:13;6.67;;;4.27;;
3563;SDS011;1796;52.388;13.096;2023-10-31T00:49:40;12.53;;;4.80;;
3563;SDS011;1796;52.388;13.096;2023-10-31T00:52:07;4.80;;;4.27;;
3563;SDS011;1796;52.388;13.096;2023-10-31T00:54:34;9.40;;;4.47;;
3563;SDS011;1796;52.388;13.096;2023-10-31T00:57:02;5.00;;;4.10;;
3563;SDS011;1796;52.388;13.096;2023-10-31T00:59:30;6.10;;;4.60;;
3563;SDS011;1796;52.388;13.096;2023-10-31T01:01:57;6.47;;;4.70;;
3563;SDS011;1796;52.388;13.096;2023-10-31T01:04:24;5.20;;;4.33;;
3563;SDS011;1796;52.388;13.096;2023-10-31T01:06:51;5.20;;;4.17;;
3563;SDS011;1796;52.388;13.096;2023-10-31T01:09:18;44.00;;;30.37;;
3563;SDS011;1796;52.388;13.096;2023-10-31T01:11:44;10.80;;;4.90;;
3563;SDS011;1796;52.388;13.096;2023-10-31T01:14:11;5.30;;;4.80;;
3563;SDS011;1796;52.388;13.096;2023-10-31T01:16:40;8.33;;;4.90;;
3563;SDS011;1796;52.388;13.096;2023-10-31T01:19:07;13.20;;;5.60;;
3563;SDS011;1796;52.388;13.096;2023-10-31T01:21:34;8.07;;;5.23;;
3563;SDS011;1796;52.388;13.096;2023-10-31T01:24:01;7.60;;;4.50;;
3563;SDS011;1796;52.388;13.096;2023-10-31T01:26:28;7.57;;;5.20;;
3563;SDS011;1796;52.388;13.096;2023-10-31T01:28:55;6.70;;;4.97;;
3563;SDS011;1796;52.388;13.096;2023-10-31T01:31:23;9.37;;;5.13;;
3563;SDS011;1796;52.388;13.096;2023-10-31T01:33:51;11.80;;;5.40;;
3563;SDS011;1796;52.388;13.096;2023-10-31T01:36:18;11.60;;;5.07;;
3563;SDS011;1796;52.388;13.096;2023-10-31T01:38:45;15.40;;;4.73;;
3563;SDS011;1796;52.388;13.096;2023-10-31T01:41:12;12.17;;;4.50;;
3563;SDS011;1796;52.388;13.096;2023-10-31T01:43:39;9.00;;;5.33;;
3563;SDS011;1796;52.388;13.096;2023-10-31T01:46:06;10.17;;;5.60;;
3563;SDS011;1796;52.388;13.096;2023-10-31T01:48:33;6.07;;;4.83;;
3563;SDS011;1796;52.388;13.096;2023-10-31T01:51:02;8.90;;;4.90;;
3563;SDS011;1796;52.388;13.096;2023-10-31T01:53:30;26.83;;;4.90;;
3563;SDS011;1796;52.388;13.096;2023-10-31T01:56:00;7.27;;;4.57;;
3563;SDS011;1796;52.388;13.096;2023-10-31T01:58:28;11.60;;;4.93;;
3563;SDS011;1796;52.388;13.096;2023-10-31T02:00:56;6.33;;;5.20;;
3563;SDS011;1796;52.388;13.096;2023-10-31T02:03:25;10.40;;;5.10;;
3563;SDS011;1796;52.388;13.096;2023-10-31T02:05:52;9.10;;;5.07;;
3563;SDS011;1796;52.388;13.096;2023-10-31T02:08:20;16.90;;;4.67;;
3563;SDS011;1796;52.388;13.096;2023-10-31T02:10:47;17.50;;;5.87;;
3563;SDS011;1796;52.388;13.096;2023-10-31T02:13:14;5.43;;;4.70;;
3563;SDS011;1796;52.388;13.096;2023-10-31T02:15:42;10.07;;;5.00;;
3563;SDS011;1796;52.388;13.096;2023-10-31T02:18:09;9.53;;;5.57;;
3563;SDS011;1796;52.388;13.096;2023-10-31T02:20:36;11.10;;;5.83;;
3563;SDS011;1796;52.388;13.096;2023-10-31T02:23:05;8.00;;;4.90;;
3563;SDS011;1796;52.388;13.096;2023-10-31T02:25:32;6.87;;;5.40;;
3563;SDS011;1796;52.388;13.096;2023-10-31T02:27:58;13.73;;;5.30;;
3563;SDS011;1796;52.388;13.096;2023-10-31T02:30:26;9.23;;;4.80;;
3563;SDS011;1796;52.388;13.096;2023-10-31T02:32:53;12.27;;;5.50;;
3563;SDS011;1796;52.388;13.096;2023-10-31T02:35:20;5.83;;;5.30;;
3563;SDS011;1796;52.388;13.096;2023-10-31T02:37:47;9.03;;;5.23;;
3563;SDS011;1796;52.388;13.096;2023-10-31T02:40:15;6.90;;;5.07;;
3563;SDS011;1796;52.388;13.096;2023-10-31T02:42:43;7.07;;;5.07;;
3563;SDS011;1796;52.388;13.096;2023-10-31T02:45:10;8.70;;;5.00;;
3563;SDS011;1796;52.388;13.096;2023-10-31T02:47:37;8.93;;;5.10;;
3563;SDS011;1796;52.388;13.096;2023-10-31T02:50:05;15.07;;;5.93;;
3563;SDS011;1796;52.388;13.096;2023-10-31T02:52:32;9.07;;;4.33;;
3563;SDS011;1796;52.388;13.096;2023-10-31T02:54:59;6.17;;;4.80;;
3563;SDS011;1796;52.388;13.096;2023-10-31T02:57:27;8.77;;;5.83;;
3563;SDS011;1796;52.388;13.096;2023-10-31T02:59:54;6.60;;;5.00;;
3563;SDS011;1796;52.388;13.096;2023-10-31T03:02:21;8.53;;;6.23;;
3563;SDS011;1796;52.388;13.096;2023-10-31T03:04:48;5.80;;;5.30;;
3563;SDS011;1796;52.388;13.096;2023-10-31T03:07:15;11.23;;;5.43;;
3563;SDS011;1796;52.388;13.096;2023-10-31T03:09:42;8.67;;;5.07;;
3563;SDS011;1796;52.388;13.096;2023-10-31T03:12:08;7.17;;;4.87;;
3563;SDS011;1796;52.388;13.096;2023-10-31T03:14:37;11.33;;;5.47;;
3563;SDS011;1796;52.388;13.096;2023-10-31T03:17:03;13.80;;;5.20;;
3563;SDS011;1796;52.388;13.096;2023-10-31T03:19:30;10.53;;;6.43;;
3563;SDS011;1796;52.388;13.096;2023-10-31T03:21:57;5.10;;;4.60;;
3563;SDS011;1796;52.388;13.096;2023-10-31T03:24:24;14.37;;;6.10;;
3563;SDS011;1796;52.388;13.096;2023-10-31T03:26:51;6.63;;;4.53;;
3563;SDS011;1796;52.388;13.096;2023-10-31T03:29:18;9.67;;;5.90;;
3563;SDS011;1796;52.388;13.096;2023-10-31T03:31:46;11.77;;;5.70;;
3563;SDS011;1796;52.388;13.096;2023-10-31T03:34:13;8.03;;;5.53;;
3563;SDS011;1796;52.388;13.096;2023-10-31T03:36:40;9.40;;;5.70;;
3563;SDS011;1796;52.388;13.096;2023-10-31T03:39:07;11.07;;;5.73;;
3563;SDS011;1796;52.388;13.096;2023-10-31T03:41:34;4.80;;;4.43;;
3563;SDS011;1796;52.388;13.096;2023-10-31T03:44:00;6.67;;;5.50;;
3563;SDS011;1796;52.388;13.096;2023-10-31T03:46:27;11.33;;;6.30;;
3563;SDS011;1796;52.388;13.096;2023-10-31T03:48:55;9.60;;;6.10;;
3563;SDS011;1796;52.388;13.096;2023-10-31T03:51:22;11.83;;;6.30;;
3563;SDS011;1796;52.388;13.096;2023-10-31T03:53:49;7.30;;;5.97;;
3563;SDS011;1796;52.388;13.096;2023-10-31T03:56:16;6.90;;;6.27;;
3563;SDS011;1796;52.388;13.096;2023-10-31T03:58:43;12.23;;;6.47;;
3563;SDS011;1796;52.388;13.096;2023-10-31T04:01:10;9.40;;;5.73;;
3563;SDS011;1796;52.388;13.096;2023-10-31T04:03:36;8.33;;;6.97;;
3563;SDS011;1796;52.388;13.096;2023-10-31T04:06:05;13.97;;;6.53;;
3563;SDS011;1796;52.388;13.096;2023-10-31T04:08:32;11.80;;;6.37;;
3563;SDS011;1796;52.388;13.096;2023-10-31T04:10:59;10.80;;;6.57;;
3563;SDS011;1796;52.388;13.096;2023-10-31T04:13:26;10.50;;;6.83;;
3563;SDS011;1796;52.388;13.096;2023-10-31T04:15:52;9.07;;;6.80;;
3563;SDS011;1796;52.388;13.096;2023-10-31T04:18:19;8.30;;;6.10;;
3563;SDS011;1796;52.388;13.096;2023-10-31T04:20:46;10.87;;;7.80;;
3563;SDS011;1796;52.388;13.096;2023-10-31T04:23:14;7.63;;;6.20;;
3563;SDS011;1796;52.388;13.096;2023-10-31T04:25:41;9.60;;;6.80;;
3563;SDS011;1796;52.388;13.096;2023-10-31T04:28:08;9.03;;;7.27;;
3563;SDS011;1796;52.388;13.096;2023-10-31T04:30:35;9.70;;;7.07;;
3563;SDS011;1796;52.388;13.096;2023-10-31T04:33:01;9.20;;;6.60;;
3563;SDS011;1796;52.388;13.096;2023-10-31T04:35:28;12.23;;;6.70;;
3563;SDS011;1796;52.388;13.096;2023-10-31T04:37:55;7.17;;;6.20;;
3563;SDS011;1796;52.388;13.096;2023-10-31T04:40:24;13.30;;;7.70;;
3563;SDS011;1796;52.388;13.096;2023-10-31T04:42:50;7.50;;;6.80;;
3563;SDS011;1796;52.388;13.096;2023-10-31T04:45:17;6.70;;;6.10;;
3563;SDS011;1796;52.388;13.096;2023-10-31T04:47:44;13.73;;;7.20;;
3563;SDS011;1796;52.388;13.096;2023-10-31T04:50:11;12.33;;;6.80;;
3563;SDS011;1796;52.388;13.096;2023-10-31T04:52:38;13.23;;;6.80;;
3563;SDS011;1796;52.388;13.096;2023-10-31T04:55:05;9.40;;;6.73;;
3563;SDS011;1796;52.388;13.096;2023-10-31T04:57:34;7.70;;;6.27;;
3563;SDS011;1796;52.388;13.096;2023-10-31T05:00:01;6.87;;;6.17;;
3563;SDS011;1796;52.388;13.096;2023-10-31T05:02:30;6.83;;;5.97;;
3563;SDS011;1796;52.388;13.096;2023-10-31T05:04:57;10.13;;;6.40;;
3563;SDS011;1796;52.388;13.096;2023-10-31T05:07:24;5.93;;;5.43;;
3563;SDS011;1796;52.388;13.096;2023-10-31T05:09:51;8.10;;;5.80;;
3563;SDS011;1796;52.388;13.096;2023-10-31T05:12:18;7.87;;;5.20;;
3563;SDS011;1796;52.388;13.096;2023-10-31T05:14:46;6.10;;;5.30;;
3563;SDS011;1796;52.388;13.096;2023-10-31T05:17:13;5.80;;;4.73;;
3563;SDS011;1796;52.388;13.096;2023-10-31T05:19:40;6.10;;;4.40;;
3563;SDS011;1796;52.388;13.096;2023-10-31T05:22:07;6.97;;;5.53;;
3563;SDS011;1796;52.388;13.096;2023-10-31T05:24:34;5.57;;;4.20;;
3563;SDS011;1796;52.388;13.096;2023-10-31T05:27:01;5.07;;;4.53;;
3563;SDS011;1796;52.388;13.096;2023-10-31T05:29:30;6.00;;;5.07;;
3563;SDS011;1796;52.388;13.096;2023-10-31T05:31:58;5.87;;;4.87;;
3563;SDS011;1796;52.388;13.096;2023-10-31T05:34:26;10.23;;;4.30;;
3563;SDS011;1796;52.388;13.096;2023-10-31T05:36:53;8.30;;;4.87;;
3563;SDS011;1796;52.388;13.096;2023-10-31T05:39:20;9.33;;;4.70;;
3563;SDS011;1796;52.388;13.096;2023-10-31T05:41:46;4.37;;;3.97;;
3563;SDS011;1796;52.388;13.096;2023-10-31T05:44:13;5.40;;;4.50;;
3563;SDS011;1796;52.388;13.096;2023-10-31T05:46:40;4.70;;;4.30;;
3563;SDS011;1796;52.388;13.096;2023-10-31T05:49:09;5.10;;;4.60;;
3563;SDS011;1796;52.388;13.096;2023-10-31T05:51:36;9.53;;;4.73;;
3563;SDS011;1796;52.388;13.096;2023-10-31T05:54:03;4.77;;;4.20;;
3563;SDS011;1796;52.388;13.096;2023-10-31T05:56:32;5.47;;;4.97;;
3563;SDS011;1796;52.388;13.096;2023-10-31T05:58:59;10.50;;;4.20;;
3563;SDS011;1796;52.388;13.096;2023-10-31T06:01:25;4.70;;;4.20;;
3563;SDS011;1796;52.388;13.096;2023-10-31T06:03:52;4.23;;;3.83;;
3563;SDS011;1796;52.388;13.096;2023-10-31T06:06:20;7.40;;;4.40;;
3563;SDS011;1796;52.388;13.096;2023-10-31T06:08:47;5.30;;;4.47;;
3563;SDS011;1796;52.388;13.096;2023-10-31T06:11:14;5.90;;;4.43;;
3563;SDS011;1796;52.388;13.096;2023-10-31T06:13:41;8.37;;;4.50;;
3563;SDS011;1796;52.388;13.096;2023-10-31T06:16:07;5.73;;;4.60;;
3563;SDS011;1796;52.388;13.096;2023-10-31T06:18:34;4.50;;;4.10;;
3563;SDS011;1796;52.388;13.096;2023-10-31T06:21:01;4.90;;;4.50;;
3563;SDS011;1796;52.388;13.096;2023-10-31T06:23:30;6.87;;;4.20;;
3563;SDS011;1796;52.388;13.096;2023-10-31T06:25:56;5.07;;;4.57;;
3563;SDS011;1796;52.388;13.096;2023-10-31T06:28:23;4.03;;;3.63;;
3563;SDS011;1796;52.388;13.096;2023-10-31T06:30:50;3.87;;;3.57;;
3563;SDS011;1796;52.388;13.096;2023-10-31T06:33:17;5.73;;;4.10;;
3563;SDS011;1796;52.388;13.096;2023-10-31T06:35:44;4.00;;;3.70;;
3563;SDS011;1796;52.388;13.096;2023-10-31T06:38:26;4.37;;;3.80;;
3563;SDS011;1796;52.388;13.096;2023-10-31T06:40:54;5.90;;;3.33;;
3563;SDS011;1796;52.388;13.096;2023-10-31T06:43:22;5.07;;;4.17;;
3563;SDS011;1796;52.388;13.096;2023-10-31T06:45:49;4.03;;;3.63;;
3563;SDS011;1796;52.388;13.096;2023-10-31T06:48:16;3.77;;;3.47;;
3563;SDS011;1796;52.388;13.096;2023-10-31T06:50:42;3.47;;;3.23;;
3563;SDS011;1796;52.388;13.096;2023-10-31T06:53:09;3.60;;;3.30;;
3563;SDS011;1796;52.388;13.096;2023-10-31T06:55:36;4.07;;;3.10;;
3563;SDS011;1796;52.388;13.096;2023-10-31T06:58:04;6.03;;;3.40;;
3563;SDS011;1796;52.388;13.096;2023-10-31T07:00:31;3.83;;;3.00;;
3563;SDS011;1796;52.388;13.096;2023-10-31T07:02:58;8.33;;;3.30;;
3563;SDS011;1796;52.388;13.096;2023-10-31T07:05:30;3.90;;;3.60;;
3563;SDS011;1796;52.388;13.096;2023-10-31T07:07:56;2.87;;;2.77;;
3563;SDS011;1796;52.388;13.096;2023-10-31T07:10:23;2.93;;;2.63;;
3563;SDS011;1796;52.388;13.096;2023-10-31T07:12:50;2.60;;;2.50;;
3563;SDS011;1796;52.388;13.096;2023-10-31T07:15:18;2.30;;;2.20;;
3563;SDS011;1796;52.388;13.096;2023-10-31T07:17:46;1.80;;;1.70;;
3563;SDS011;1796;52.388;13.096;2023-10-31T07:20:13;3.03;;;2.23;;
3563;SDS011;1796;52.388;13.096;2023-10-31T07:22:39;2.07;;;1.87;;
3563;SDS011;1796;52.388;13.096;2023-10-31T07:25:07;1.97;;;1.87;;
3563;SDS011;1796;52.388;13.096;2023-10-31T07:27:34;1.53;;;1.50;;
3563;SDS011;1796;52.388;13.096;2023-10-31T07:30:01;1.70;;;1.60;;
3563;SDS011;1796;52.388;13.096;2023-10-31T07:32:30;1.00;;;1.00;;
3563;SDS011;1796;52.388;13.096;2023-10-31T07:34:57;1.00;;;1.00;;
3563;SDS011;1796;52.388;13.096;2023-10-31T07:37:24;1.27;;;1.03;;
3563;SDS011;1796;52.388;13.096;2023-10-31T07:39:51;3.40;;;1.50;;
3563;SDS011;1796;52.388;13.096;2023-10-31T07:42:17;0.90;;;0.90;;
3563;SDS011;1796;52.388;13.096;2023-10-31T07:44:44;1.40;;;1.30;;
3563;SDS011;1796;52.388;13.096;2023-10-31T07:47:11;1.50;;;1.40;;
3563;SDS011;1796;52.388;13.096;2023-10-31T07:49:39;1.30;;;1.30;;
3563;SDS011;1796;52.388;13.096;2023-10-31T07:52:06;3.10;;;1.10;;
3563;SDS011;1796;52.388;13.096;2023-10-31T07:54:33;0.80;;;0.80;;
3563;SDS011;1796;52.388;13.096;2023-10-31T07:57:00;1.10;;;1.00;;
3563;SDS011;1796;52.388;13.096;2023-10-31T07:59:27;4.03;;;1.17;;
3563;SDS011;1796;52.388;13.096;2023-10-31T08:01:54;0.80;;;0.80;;
3563;SDS011;1796;52.388;13.096;2023-10-31T08:04:21;1.13;;;0.80;;
3563;SDS011;1796;52.388;13.096;2023-10-31T08:06:49;0.87;;;0.80;;
3563;SDS011;1796;52.388;13.096;2023-10-31T08:09:16;1.00;;;1.00;;
3563;SDS011;1796;52.388;13.096;2023-10-31T08:11:43;0.90;;;0.90;;
3563;SDS011;1796;52.388;13.096;2023-10-31T08:14:10;1.37;;;1.27;;
3563;SDS011;1796;52.388;13.096;2023-10-31T08:16:37;2.10;;;0.70;;
3563;SDS011;1796;52.388;13.096;2023-10-31T08:19:04;0.50;;;0.50;;
3563;SDS011;1796;52.388;13.096;2023-10-31T08:21:30;7.10;;;0.93;;
3563;SDS011;1796;52.388;13.096;2023-10-31T08:24:01;2.53;;;0.70;;
3563;SDS011;1796;52.388;13.096;2023-10-31T08:26:29;0.60;;;0.60;;
3563;SDS011;1796;52.388;13.096;2023-10-31T08:28:56;4.77;;;1.00;;
3563;SDS011;1796;52.388;13.096;2023-10-31T08:31:23;3.33;;;1.50;;
3563;SDS011;1796;52.388;13.096;2023-10-31T08:33:50;0.63;;;0.60;;
3563;SDS011;1796;52.388;13.096;2023-10-31T08:36:18;0.70;;;0.70;;
3563;SDS011;1796;52.388;13.096;2023-10-31T08:38:45;0.70;;;0.70;;
3563;SDS011;1796;52.388;13.096;2023-10-31T08:41:15;4.10;;;1.07;;
3563;SDS011;1796;52.388;13.096;2023-10-31T08:43:46;1.43;;;0.93;;
3563;SDS011;1796;52.388;13.096;2023-10-31T08:46:15;0.53;;;0.53;;
3563;SDS011;1796;52.388;13.096;2023-10-31T08:48:42;1.00;;;0.70;;
3563;SDS011;1796;52.388;13.096;2023-10-31T08:51:09;0.70;;;0.70;;
3563;SDS011;1796;52.388;13.096;2023-10-31T08:53:36;0.70;;;0.70;;
3563;SDS011;1796;52.388;13.096;2023-10-31T08:56:03;2.20;;;0.90;;
3563;SDS011;1796;52.388;13.096;2023-10-31T08:58:31;2.77;;;0.80;;
3563;SDS011;1796;52.388;13.096;2023-10-31T09:00:58;2.77;;;0.70;;
3563;SDS011;1796;52.388;13.096;2023-10-31T09:03:25;1.10;;;0.90;;
3563;SDS011;1796;52.388;13.096;2023-10-31T09:05:52;1.03;;;0.90;;
3563;SDS011;1796;52.388;13.096;2023-10-31T09:08:19;2.60;;;1.00;;
3563;SDS011;1796;52.388;13.096;2023-10-31T09:10:46;0.80;;;0.80;;
3563;SDS011;1796;52.388;13.096;2023-10-31T09:13:13;1.03;;;0.90;;
3563;SDS011;1796;52.388;13.096;2023-10-31T09:15:42;1.13;;;0.80;;
3563;SDS011;1796;52.388;13.096;2023-10-31T09:18:10;2.70;;;1.00;;
3563;SDS011;1796;52.388;13.096;2023-10-31T09:20:38;0.93;;;0.93;;
3563;SDS011;1796;52.388;13.096;2023-10-31T09:23:05;2.83;;;1.00;;
3563;SDS011;1796;52.388;13.096;2023-10-31T09:25:31;1.27;;;1.00;;
3563;SDS011;1796;52.388;13.096;2023-10-31T09:28:00;3.80;;;1.00;;
3563;SDS011;1796;52.388;13.096;2023-10-31T09:30:26;0.90;;;0.90;;
3563;SDS011;1796;52.388;13.096;2023-10-31T09:32:55;2.00;;;0.77;;
3563;SDS011;1796;52.388;13.096;2023-10-31T09:35:22;0.70;;;0.70;;
3563;SDS011;1796;52.388;13.096;2023-10-31T09:37:49;0.93;;;0.93;;
3563;SDS011;1796;52.388;13.096;2023-10-31T09:40:15;1.77;;;1.10;;
3563;SDS011;1796;52.388;13.096;2023-10-31T09:42:43;0.83;;;0.83;;
3563;SDS011;1796;52.388;13.096;2023-10-31T09:45:11;1.10;;;1.00;;
3563;SDS011;1796;52.388;13.096;2023-10-31T09:47:38;1.07;;;1.07;;
3563;SDS011;1796;52.388;13.096;2023-10-31T09:50:07;1.30;;;0.87;;
3563;SDS011;1796;52.388;13.096;2023-10-31T09:52:35;0.90;;;0.90;;
3563;SDS011;1796;52.388;13.096;2023-10-31T09:55:03;0.80;;;0.80;;
3563;SDS011;1796;52.388;13.096;2023-10-31T09:57:31;1.37;;;1.00;;
3563;SDS011;1796;52.388;13.096;2023-10-31T09:59:58;1.07;;;1.07;;
3563;SDS011;1796;52.388;13.096;2023-10-31T10:02:26;1.10;;;1.10;;
3563;SDS011;1796;52.388;13.096;2023-10-31T10:04:53;1.20;;;1.00;;
3563;SDS011;1796;52.388;13.096;2023-10-31T10:07:22;1.00;;;1.00;;
3563;SDS011;1796;52.388;13.096;2023-10-31T10:09:49;0.90;;;0.90;;
3563;SDS011;1796;52.388;13.096;2023-10-31T10:12:16;1.30;;;1.30;;
3563;SDS011;1796;52.388;13.096;2023-10-31T10:14:47;5.30;;;1.27;;
3563;SDS011;1796;52.388;13.096;2023-10-31T10:17:20;1.27;;;1.27;;
3563;SDS011;1796;52.388;13.096;2023-10-31T10:19:48;2.07;;;1.10;;
3563;SDS011;1796;52.388;13.096;2023-10-31T10:22:33;9.47;;;1.67;;
3563;SDS011;1796;52.388;13.096;2023-10-31T10:25:04;1.40;;;1.40;;
3563;SDS011;1796;52.388;13.096;2023-10-31T10:27:32;2.93;;;1.50;;
3563;SDS011;1796;52.388;13.096;2023-10-31T10:30:01;2.57;;;1.50;;
3563;SDS011;1796;52.388;13.096;2023-10-31T10:32:29;3.80;;;2.33;;
3563;SDS011;1796;52.388;13.096;2023-10-31T10:34:56;1.40;;;1.40;;
3563;SDS011;1796;52.388;13.096;2023-10-31T10:37:26;1.57;;;1.47;;
3563;SDS011;1796;52.388;13.096;2023-10-31T10:39:57;1.70;;;1.30;;
3563;SDS011;1796;52.388;13.096;2023-10-31T10:42:28;3.33;;;1.57;;
3563;SDS011;1796;52.388;13.096;2023-10-31T10:45:01;1.33;;;1.20;;
3563;SDS011;1796;52.388;13.096;2023-10-31T10:47:31;3.90;;;1.80;;
3563;SDS011;1796;52.388;13.096;2023-10-31T10:49:59;1.43;;;1.30;;
3563;SDS011;1796;52.388;13.096;2023-10-31T10:52:28;1.60;;;1.47;;
3563;SDS011;1796;52.388;13.096;2023-10-31T10:55:03;1.53;;;1.43;;
3563;SDS011;1796;52.388;13.096;2023-10-31T10:57:36;1.50;;;1.40;;
3563;SDS011;1796;52.388;13.096;2023-10-31T11:00:06;1.50;;;1.40;;
3563;SDS011;1796;52.388;13.096;2023-10-31T11:02:38;1.20;;;1.20;;
3563;SDS011;1796;52.388;13.096;2023-10-31T11:05:07;16.43;;;9.77;;
3563;SDS011;1796;52.388;13.096;2023-10-31T11:07:35;2.20;;;2.00;;
3563;SDS011;1796;52.388;13.096;2023-10-31T11:10:05;1.10;;;1.10;;
3563;SDS011;1796;52.388;13.096;2023-10-31T11:12:34;1.40;;;1.30;;
3563;SDS011;1796;52.388;13.096;2023-10-31T11:15:04;1.10;;;1.10;;
3563;SDS011;1796;52.388;13.096;2023-10-31T11:17:37;1.30;;;1.30;;
3563;SDS011;1796;52.388;13.096;2023-10-31T11:20:07;4.97;;;1.30;;
3563;SDS011;1796;52.388;13.096;2023-10-31T11:22:36;2.63;;;1.30;;
3563;SDS011;1796;52.388;13.096;2023-10-31T11:25:06;0.80;;;0.80;;
3563;SDS011;1796;52.388;13.096;2023-10-31T11:27:34;1.07;;;0.97;;
3563;SDS011;1796;52.388;13.096;2023-10-31T11:30:04;0.80;;;0.80;;
3563;SDS011;1796;52.388;13.096;2023-10-31T11:32:32;0.90;;;0.90;;
3563;SDS011;1796;52.388;13.096;2023-10-31T11:34:59;1.10;;;1.10;;
3563;SDS011;1796;52.388;13.096;2023-10-31T11:37:31;1.57;;;1.43;;
3563;SDS011;1796;52.388;13.096;2023-10-31T11:42:48;1.43;;;1.30;;
3563;SDS011;1796;52.388;13.096;2023-10-31T11:45:29;1.00;;;0.90;;
3563;SDS011;1796;52.388;13.096;2023-10-31T11:47:57;1.10;;;0.87;;
3563;SDS011;1796;52.388;13.096;2023-10-31T11:50:24;7.17;;;1.97;;
3563;SDS011;1796;52.388;13.096;2023-10-31T11:52:58;1.30;;;1.20;;
3563;SDS011;1796;52.388;13.096;2023-10-31T11:55:27;1.73;;;1.20;;
3563;SDS011;1796;52.388;13.096;2023-10-31T11:57:58;1.10;;;1.00;;
3563;SDS011;1796;52.388;13.096;2023-10-31T12:00:25;0.80;;;0.80;;
3563;SDS011;1796;52.388;13.096;2023-10-31T12:02:59;0.80;;;0.80;;
3563;SDS011;1796;52.388;13.096;2023-10-31T12:05:26;2.50;;;1.00;;
3563;SDS011;1796;52.388;13.096;2023-10-31T12:07:55;1.00;;;1.00;;
3563;SDS011;1796;52.388;13.096;2023-10-31T12:10:22;0.80;;;0.80;;
3563;SDS011;1796;52.388;13.096;2023-10-31T12:12:52;0.80;;;0.80;;
3563;SDS011;1796;52.388;13.096;2023-10-31T12:15:19;3.13;;;1.00;;
3563;SDS011;1796;52.388;13.096;2023-10-31T12:17:46;0.80;;;0.80;;
3563;SDS011;1796;52.388;13.096;2023-10-31T12:20:13;1.00;;;1.00;;
3563;SDS011;1796;52.388;13.096;2023-10-31T12:22:40;0.80;;;0.80;;
3563;SDS011;1796;52.388;13.096;2023-10-31T12:25:08;0.70;;;0.70;;
3563;SDS011;1796;52.388;13.096;2023-10-31T12:27:43;0.80;;;0.80;;
3563;SDS011;1796;52.388;13.096;2023-10-31T12:30:12;0.70;;;0.70;;
3563;SDS011;1796;52.388;13.096;2023-10-31T12:32:40;0.90;;;0.70;;
3563;SDS011;1796;52.388;13.096;2023-10-31T12:35:08;1.00;;;1.00;;
3563;SDS011;1796;52.388;13.096;2023-10-31T12:37:41;0.70;;;0.70;;
3563;SDS011;1796;52.388;13.096;2023-10-31T12:40:11;3.03;;;1.00;;
3563;SDS011;1796;52.388;13.096;2023-10-31T12:42:39;0.60;;;0.60;;
3563;SDS011;1796;52.388;13.096;2023-10-31T12:45:07;3.20;;;1.20;;
3563;SDS011;1796;52.388;13.096;2023-10-31T12:47:36;0.70;;;0.70;;
3563;SDS011;1796;52.388;13.096;2023-10-31T12:50:06;4.13;;;0.57;;
3563;SDS011;1796;52.388;13.096;2023-10-31T12:52:45;1.63;;;0.70;;
3563;SDS011;1796;52.388;13.096;2023-10-31T12:55:13;0.70;;;0.70;;
3563;SDS011;1796;52.388;13.096;2023-10-31T12:57:40;0.67;;;0.67;;
3563;SDS011;1796;52.388;13.096;2023-10-31T13:00:09;0.80;;;0.80;;
3563;SDS011;1796;52.388;13.096;2023-10-31T13:02:39;0.80;;;0.80;;
3563;SDS011;1796;52.388;13.096;2023-10-31T13:05:10;0.70;;;0.70;;
3563;SDS011;1796;52.388;13.096;2023-10-31T13:07:38;0.80;;;0.80;;
3563;SDS011;1796;52.388;13.096;2023-10-31T13:10:05;2.40;;;0.73;;
3563;SDS011;1796;52.388;13.096;2023-10-31T13:12:34;0.90;;;0.90;;
3563;SDS011;1796;52.388;13.096;2023-10-31T13:15:01;0.70;;;0.70;;
3563;SDS011;1796;52.388;13.096;2023-10-31T13:17:29;0.73;;;0.70;;
3563;SDS011;1796;52.388;13.096;2023-10-31T13:19:58;0.60;;;0.60;;
3563;SDS011;1796;52.388;13.096;2023-10-31T13:22:25;0.83;;;0.80;;
3563;SDS011;1796;52.388;13.096;2023-10-31T13:24:52;5.90;;;0.80;;
3563;SDS011;1796;52.388;13.096;2023-10-31T13:27:19;0.80;;;0.80;;
3563;SDS011;1796;52.388;13.096;2023-10-31T13:29:46;0.60;;;0.60;;
3563;SDS011;1796;52.388;13.096;2023-10-31T13:32:15;0.60;;;0.60;;
3563;SDS011;1796;52.388;13.096;2023-10-31T13:34:42;1.90;;;0.63;;
3563;SDS011;1796;52.388;13.096;2023-10-31T13:37:10;0.80;;;0.80;;
3563;SDS011;1796;52.388;13.096;2023-10-31T13:39:37;3.23;;;1.00;;
3563;SDS011;1796;52.388;13.096;2023-10-31T13:42:04;0.60;;;0.60;;
3563;SDS011;1796;52.388;13.096;2023-10-31T13:44:31;0.63;;;0.60;;
3563;SDS011;1796;52.388;13.096;2023-10-31T13:46:58;0.70;;;0.70;;
3563;SDS011;1796;52.388;13.096;2023-10-31T13:49:26;0.93;;;0.93;;
3563;SDS011;1796;52.388;13.096;2023-10-31T13:51:53;0.70;;;0.70;;
3563;SDS011;1796;52.388;13.096;2023-10-31T13:54:21;0.70;;;0.70;;
3563;SDS011;1796;52.388;13.096;2023-10-31T13:56:48;3.07;;;0.80;;
3563;SDS011;1796;52.388;13.096;2023-10-31T13:59:21;0.97;;;0.80;;
3563;SDS011;1796;52.388;13.096;2023-10-31T14:01:48;0.77;;;0.77;;
3563;SDS011;1796;52.388;13.096;2023-10-31T14:04:15;0.80;;;0.80;;
3563;SDS011;1796;52.388;13.096;2023-10-31T14:06:42;0.60;;;0.60;;
3563;SDS011;1796;52.388;13.096;2023-10-31T14:09:10;0.60;;;0.60;;
3563;SDS011;1796;52.388;13.096;2023-10-31T14:11:39;1.57;;;0.70;;
3563;SDS011;1796;52.388;13.096;2023-10-31T14:14:06;0.87;;;0.87;;
3563;SDS011;1796;52.388;13.096;2023-10-31T14:16:35;0.70;;;0.70;;
3563;SDS011;1796;52.388;13.096;2023-10-31T14:19:03;2.53;;;0.70;;
3563;SDS011;1796;52.388;13.096;2023-10-31T14:21:31;0.63;;;0.63;;
3563;SDS011;1796;52.388;13.096;2023-10-31T14:23:58;0.63;;;0.63;;
3563;SDS011;1796;52.388;13.096;2023-10-31T14:26:26;0.73;;;0.73;;
3563;SDS011;1796;52.388;13.096;2023-10-31T14:28:54;1.33;;;0.80;;
3563;SDS011;1796;52.388;13.096;2023-10-31T14:31:22;0.90;;;0.83;;
3563;SDS011;1796;52.388;13.096;2023-10-31T14:33:49;1.73;;;0.70;;
3563;SDS011;1796;52.388;13.096;2023-10-31T14:36:15;2.47;;;0.80;;
3563;SDS011;1796;52.388;13.096;2023-10-31T14:38:42;1.07;;;0.97;;
3563;SDS011;1796;52.388;13.096;2023-10-31T14:41:09;1.37;;;0.90;;
3563;SDS011;1796;52.388;13.096;2023-10-31T14:43:37;1.27;;;1.07;;
3563;SDS011;1796;52.388;13.096;2023-10-31T14:46:05;2.90;;;1.30;;
3563;SDS011;1796;52.388;13.096;2023-10-31T14:48:32;1.40;;;1.00;;
3563;SDS011;1796;52.388;13.096;2023-10-31T14:50:59;1.17;;;1.00;;
3563;SDS011;1796;52.388;13.096;2023-10-31T14:53:27;1.03;;;0.90;;
3563;SDS011;1796;52.388;13.096;2023-10-31T14:55:55;1.87;;;1.30;;
3563;SDS011;1796;52.388;13.096;2023-10-31T14:58:22;12.53;;;1.40;;
3563;SDS011;1796;52.388;13.096;2023-10-31T15:00:49;0.90;;;0.77;;
3563;SDS011;1796;52.388;13.096;2023-10-31T15:03:17;6.53;;;0.90;;
3563;SDS011;1796;52.388;13.096;2023-10-31T15:05:44;1.00;;;1.00;;